createdAt,value
2018-12-22T00:01:41.190Z,97781.95
2018-12-22T00:04:18.236Z,97782.94
2018-12-22T00:06:52.721Z,97779.42
2018-12-22T00:09:27.178Z,97782.73
2018-12-22T00:12:04.963Z,97770.13
2018-12-22T00:14:46.225Z,97773.00
2018-12-22T00:19:59.035Z,97785.29
2018-12-22T00:22:38.130Z,97777.70
2018-12-22T00:25:15.619Z,97774.25
2018-12-22T00:27:52.780Z,97782.94
2018-12-22T00:30:27.896Z,97772.94
2018-12-22T00:33:07.113Z,97780.17
2018-12-22T00:38:08.621Z,97775.29
2018-12-22T00:40:44.872Z,97783.14
2018-12-22T00:43:20.731Z,97776.19
2018-12-22T00:45:56.465Z,97778.63
2018-12-22T00:48:33.519Z,97776.42
2018-12-22T00:51:19.653Z,97770.67
2018-12-22T00:54:00.122Z,97767.80
2018-12-22T00:56:34.884Z,97773.04
2018-12-22T00:59:13.215Z,97774.34
2018-12-22T01:01:50.232Z,97778.94
2018-12-22T01:04:27.433Z,97781.15
2018-12-22T01:07:04.417Z,97782.20
2018-12-22T01:09:40.149Z,97784.67
2018-12-22T01:12:17.564Z,97779.39
2018-12-22T01:14:54.363Z,97780.64
2018-12-22T01:17:32.309Z,97776.66
2018-12-22T01:20:13.024Z,97783.42
2018-12-22T01:22:50.085Z,97785.20
2018-12-22T01:25:27.223Z,97770.38
2018-12-22T01:28:11.223Z,97768.66
2018-12-22T01:30:57.129Z,97765.47
2018-12-22T01:33:35.916Z,97769.90
2018-12-22T01:39:11.826Z,97780.88
2018-12-22T01:41:47.025Z,97778.16
2018-12-22T01:44:24.302Z,97784.95
2018-12-22T01:47:01.142Z,97782.13
2018-12-22T01:49:36.725Z,97783.95
2018-12-22T01:52:10.476Z,97789.98
2018-12-22T02:03:53.577Z,97786.23
2018-12-22T02:06:28.174Z,97785.33
2018-12-22T02:09:06.456Z,97773.69
2018-12-22T02:11:43.562Z,97780.35
2018-12-22T02:14:20.764Z,97783.44
2018-12-22T02:16:58.268Z,97781.98
2018-12-22T02:53:10.696Z,97772.04
2018-12-22T03:01:50.719Z,97770.61
2018-12-22T03:04:28.621Z,97773.16
2018-12-22T03:07:05.018Z,97765.41
2018-12-22T03:09:42.199Z,97760.56
2018-12-22T03:12:22.263Z,97757.95
2018-12-22T03:15:11.319Z,97757.84
2018-12-22T03:23:56.181Z,97768.00
2018-12-22T03:32:41.915Z,97729.62
2018-12-22T03:38:32.411Z,97723.55
2018-12-22T03:41:23.836Z,97728.64
2018-12-22T03:47:18.964Z,97739.80
2018-12-22T03:56:00.945Z,97737.05
2018-12-22T04:01:48.644Z,97724.04
2018-12-22T04:10:38.507Z,97722.77
2018-12-22T04:13:21.815Z,97713.52
2018-12-22T04:16:05.789Z,97709.09
2018-12-22T04:18:58.945Z,97715.63
2018-12-22T04:26:04.349Z,97712.16
2018-12-22T04:37:47.428Z,97726.62
2018-12-22T04:40:25.511Z,97711.09
2018-12-22T04:43:10.565Z,97712.63
2018-12-22T04:45:53.664Z,97706.76
2018-12-22T04:48:32.216Z,97727.40
2018-12-22T05:05:43.543Z,97714.89
2018-12-22T05:08:17.722Z,97718.74
2018-12-22T05:13:53.234Z,97710.89
2018-12-22T05:16:30.234Z,97703.94
2018-12-22T05:19:09.293Z,97717.74
2018-12-22T05:27:36.302Z,97740.10
2018-12-22T05:30:10.693Z,97748.27
2018-12-22T05:32:52.572Z,97746.03
2018-12-22T05:35:29.594Z,97744.63
2018-12-22T05:38:03.210Z,97754.42
2018-12-22T05:40:42.853Z,97777.56
2018-12-22T05:43:19.705Z,97753.78
2018-12-22T05:45:59.860Z,97766.45
2018-12-22T05:48:46.541Z,97755.47
2018-12-22T05:51:26.541Z,97780.14
2018-12-22T05:54:00.531Z,97795.55
2018-12-22T05:59:31.447Z,97798.80
2018-12-22T06:02:03.843Z,97806.41
2018-12-22T06:04:40.556Z,97812.38
2018-12-22T06:09:55.256Z,97812.77
2018-12-22T06:12:37.047Z,97817.39
2018-12-22T06:15:13.976Z,97819.14
2018-12-22T06:17:46.054Z,97845.36
2018-12-22T06:20:20.601Z,97818.89
2018-12-22T06:22:56.039Z,97850.44
2018-12-22T06:25:34.845Z,97841.98
2018-12-22T06:28:08.741Z,97847.06
2018-12-22T06:33:32.266Z,97845.64
2018-12-22T06:36:08.281Z,97846.23
2018-12-22T06:38:46.241Z,97849.56
2018-12-22T06:41:21.421Z,97854.80
2018-12-22T06:43:55.892Z,97878.64
2018-12-22T06:46:30.507Z,97862.48
2018-12-22T06:49:06.574Z,97866.44
2018-12-22T06:51:41.900Z,97873.20
2018-12-22T06:54:19.148Z,97881.05
2018-12-22T06:56:53.704Z,97894.03
2018-12-22T06:59:27.897Z,97912.37
2018-12-22T07:02:07.711Z,97915.67
2018-12-22T07:07:12.701Z,97924.73
2018-12-22T07:12:34.173Z,97917.46
2018-12-22T07:15:11.464Z,97924.42
2018-12-22T07:17:51.515Z,97939.81
2018-12-22T07:20:25.269Z,97941.38
2018-12-22T07:23:00.354Z,97950.92
2018-12-22T07:25:37.818Z,97963.58
2018-12-22T07:30:55.252Z,97972.45
2018-12-22T07:33:32.561Z,97972.13
2018-12-22T07:36:06.107Z,97985.00
2018-12-22T07:38:42.613Z,97976.64
2018-12-22T07:41:15.822Z,97979.95
2018-12-22T07:46:43.595Z,97992.02
2018-12-22T07:49:24.275Z,97982.13
2018-12-22T07:52:05.302Z,97997.73
2018-12-22T07:54:46.661Z,98004.37
2018-12-22T07:57:34.910Z,98009.14
2018-12-22T08:02:57.836Z,98021.91
2018-12-22T08:05:38.911Z,98025.29
2018-12-22T08:08:13.803Z,98021.38
2018-12-22T08:10:48.685Z,98023.80
2018-12-22T08:13:26.465Z,98024.70
2018-12-22T08:16:13.343Z,98044.86
2018-12-22T08:19:13.858Z,98058.31
2018-12-22T08:21:49.907Z,98064.48
2018-12-22T08:24:25.415Z,98057.28
2018-12-22T08:27:02.439Z,98036.73
2018-12-22T08:29:39.334Z,98054.40
2018-12-22T08:35:20.201Z,98047.86
2018-12-22T08:37:57.778Z,98052.32
2018-12-22T08:40:37.602Z,98063.91
2018-12-22T08:43:14.873Z,98076.52
2018-12-22T08:45:53.341Z,98081.75
2018-12-22T08:48:25.830Z,98098.48
2018-12-22T08:51:02.739Z,98107.09
2018-12-22T08:53:39.559Z,98108.58
2018-12-22T08:56:14.518Z,98116.23
2018-12-22T08:58:47.853Z,98112.77
2018-12-22T09:01:26.513Z,98107.42
2018-12-22T09:06:58.116Z,98110.40
2018-12-22T09:09:46.143Z,98114.15
2018-12-22T09:15:41.575Z,98115.42
2018-12-22T09:18:30.762Z,98138.38
2018-12-22T09:36:17.988Z,98187.50
2018-12-22T09:38:56.910Z,98199.11
2018-12-22T09:41:37.507Z,98203.81
2018-12-22T09:44:21.395Z,98217.60
2018-12-22T09:46:55.818Z,98217.94
2018-12-22T09:49:31.910Z,98224.20
2018-12-22T09:55:18.979Z,98229.47
2018-12-22T09:57:59.719Z,98221.51
2018-12-22T10:00:45.278Z,98224.84
2018-12-22T10:06:18.673Z,98220.70
2018-12-22T10:08:52.246Z,98230.95
2018-12-22T10:14:29.677Z,98237.17
2018-12-22T10:17:05.022Z,98235.14
2018-12-22T10:19:42.218Z,98237.69
2018-12-22T10:22:18.142Z,98241.95
2018-12-22T10:24:53.492Z,98247.92
2018-12-22T10:27:28.333Z,98245.14
2018-12-22T10:30:05.077Z,98257.71
2018-12-22T10:32:43.272Z,98244.92
2018-12-22T10:35:27.177Z,98234.70
2018-12-22T10:38:03.763Z,98238.39
2018-12-22T10:40:40.863Z,98247.77
2018-12-22T10:43:15.789Z,98247.47
2018-12-22T10:48:34.152Z,98233.11
2018-12-22T10:51:10.742Z,98235.20
2018-12-22T10:53:45.117Z,98234.30
2018-12-22T10:56:20.978Z,98231.44
2018-12-22T10:59:01.797Z,98237.81
2018-12-22T11:01:38.243Z,98239.41
2018-12-22T11:04:15.451Z,98226.88
2018-12-22T11:06:50.998Z,98222.38
2018-12-22T11:09:27.723Z,98231.00
2018-12-22T11:12:05.326Z,98233.61
2018-12-22T11:14:40.759Z,98223.34
2018-12-22T11:17:18.455Z,98232.30
2018-12-22T11:20:00.748Z,98239.28
2018-12-22T11:22:36.732Z,98242.29
2018-12-22T11:25:16.597Z,98231.48
2018-12-22T11:27:53.674Z,98238.69
2018-12-22T11:37:05.900Z,98252.30
2018-12-22T11:39:42.736Z,98252.20
2018-12-22T11:42:19.211Z,98269.32
2018-12-22T11:44:55.943Z,98279.23
2018-12-22T11:47:38.787Z,98299.29
2018-12-22T11:50:21.475Z,98316.27
2018-12-22T11:52:56.678Z,98326.16
2018-12-22T11:55:34.894Z,98323.48
2018-12-22T11:58:09.751Z,98296.55
2018-12-22T12:00:51.963Z,98292.97
2018-12-22T12:03:29.334Z,98280.08
2018-12-22T12:06:11.957Z,98283.52
2018-12-22T12:08:50.950Z,98286.17
2018-12-22T12:11:27.899Z,98299.69
2018-12-22T12:14:05.328Z,98303.38
2018-12-22T12:17:52.316Z,98296.32
2018-12-22T12:20:32.651Z,98303.50
2018-12-22T12:23:09.686Z,98310.27
2018-12-22T12:25:44.979Z,98294.73
2018-12-22T12:28:21.293Z,98305.03
2018-12-22T12:31:04.319Z,98313.22
2018-12-22T12:33:41.409Z,98309.08
2018-12-22T12:36:20.865Z,98316.36
2018-12-22T12:38:59.178Z,98317.59
2018-12-22T12:41:31.838Z,98317.59
2018-12-22T12:44:06.828Z,98319.06
2018-12-22T12:46:45.030Z,98322.65
2018-12-22T12:49:22.198Z,98331.01
2018-12-22T12:52:02.464Z,98328.53
2018-12-22T12:54:39.198Z,98328.70
2018-12-22T12:57:11.741Z,98332.32
2018-12-22T12:59:48.897Z,98320.39
2018-12-22T13:02:24.633Z,98313.27
2018-12-22T13:04:59.756Z,98315.14
2018-12-22T13:07:34.679Z,98314.73
2018-12-22T13:10:12.962Z,98321.91
2018-12-22T13:13:02.743Z,98325.77
2018-12-22T13:15:39.483Z,98322.33
2018-12-22T13:18:16.790Z,98314.81
2018-12-22T13:20:54.130Z,98314.16
2018-12-22T13:23:29.700Z,98320.54
2018-12-22T13:29:14.358Z,98332.24
2018-12-22T13:31:56.622Z,98326.44
2018-12-22T13:34:32.414Z,98325.23
2018-12-22T13:37:12.150Z,98325.49
2018-12-22T13:39:48.574Z,98335.30
2018-12-22T13:42:23.565Z,98325.14
2018-12-22T13:45:00.327Z,98334.19
2018-12-22T13:47:35.433Z,98338.41
2018-12-22T13:50:11.369Z,98346.16
2018-12-22T13:52:55.067Z,98346.25
2018-12-22T13:55:32.342Z,98343.27
2018-12-22T13:58:07.598Z,98352.43
2018-12-22T14:00:46.320Z,98357.57
2018-12-22T14:03:29.330Z,98370.27
2018-12-22T14:06:08.936Z,98367.84
2018-12-22T14:08:43.910Z,98374.95
2018-12-22T14:11:20.140Z,98376.55
2018-12-22T14:13:56.539Z,98376.80
2018-12-22T14:17:54.075Z,98383.23
2018-12-22T14:20:37.646Z,98375.56
2018-12-22T14:26:20.986Z,98395.02
2018-12-22T14:29:04.509Z,98402.94
2018-12-22T14:31:41.332Z,98385.36
2018-12-22T14:34:19.120Z,98403.35
2018-12-22T14:36:58.772Z,98390.48
2018-12-22T14:42:24.171Z,98386.28
2018-12-22T14:44:55.688Z,98385.13
2018-12-22T14:52:58.966Z,98389.34
2018-12-22T14:55:34.343Z,98389.19
2018-12-22T14:58:21.472Z,98394.40
2018-12-22T15:00:56.024Z,98399.25
2018-12-22T15:03:42.450Z,98406.78
2018-12-22T15:06:20.859Z,98407.99
2018-12-22T15:08:57.717Z,98410.56
2018-12-22T15:11:35.640Z,98408.29
2018-12-22T15:14:11.866Z,98413.98
2018-12-22T15:16:49.562Z,98416.17
2018-12-22T15:22:07.976Z,98433.27
2018-12-22T15:24:44.589Z,98436.27
2018-12-22T15:27:35.476Z,98432.02
2018-12-22T15:30:16.629Z,98436.72
2018-12-22T15:32:54.702Z,98450.63
2018-12-22T15:35:40.150Z,98448.94
2018-12-22T15:38:28.571Z,98448.20
2018-12-22T15:41:04.545Z,98457.80
2018-12-22T15:43:42.985Z,98454.91
2018-12-22T15:49:24.838Z,98469.66
2018-12-22T16:22:46.812Z,98509.04
2018-12-22T16:25:24.672Z,98503.91
2018-12-22T16:28:07.600Z,98507.42
2018-12-22T16:30:49.945Z,98526.08
2018-12-22T17:15:38.778Z,98520.47
2018-12-22T17:27:27.235Z,98544.95
2018-12-22T17:48:38.185Z,98557.41
2018-12-22T18:21:55.510Z,98589.73
2018-12-22T18:33:46.844Z,98581.16
2018-12-22T18:36:32.983Z,98587.98
2018-12-22T18:48:12.050Z,98597.82
2018-12-22T18:54:16.524Z,98593.59
2018-12-22T18:56:51.037Z,98597.95
2018-12-22T19:05:48.716Z,98603.73
2018-12-22T19:51:21.701Z,98647.88
2018-12-22T19:53:59.695Z,98641.77
2018-12-22T19:56:34.663Z,98636.61
2018-12-22T19:59:11.613Z,98636.84
2018-12-22T20:01:48.558Z,98637.66
2018-12-22T20:05:04.406Z,98643.91
2018-12-22T20:07:52.095Z,98647.03
2018-12-22T20:13:34.526Z,98657.74
2018-12-22T20:16:09.949Z,98654.37
2018-12-22T20:18:46.585Z,98662.91
2018-12-22T20:21:28.954Z,98656.92
2018-12-22T20:24:06.341Z,98671.71
2018-12-22T20:29:36.586Z,98658.48
2018-12-22T20:38:01.755Z,98664.04
2018-12-22T21:04:36.345Z,98679.69
2018-12-22T21:07:18.155Z,98678.92
2018-12-22T21:25:00.723Z,98703.36
2018-12-22T21:27:36.346Z,98709.14
2018-12-22T21:30:13.952Z,98714.55
2018-12-22T21:32:56.315Z,98725.70
2018-12-22T21:35:31.307Z,98729.80
2018-12-22T21:38:06.214Z,98728.22
2018-12-22T21:40:41.087Z,98732.00
2018-12-22T22:19:21.180Z,98724.73
2018-12-22T22:27:27.804Z,98742.61
2018-12-22T22:30:11.518Z,98740.91
2018-12-22T22:32:47.792Z,98738.77
2018-12-22T22:38:35.651Z,98752.12
2018-12-22T22:41:11.299Z,98756.13
2018-12-22T22:49:42.747Z,98752.55
2018-12-22T22:52:18.968Z,98754.58
2018-12-22T22:54:55.227Z,98762.54
2018-12-22T22:57:30.447Z,98771.39
2018-12-22T23:02:52.082Z,98775.95
2018-12-22T23:08:27.342Z,98772.58
2018-12-22T23:11:02.666Z,98768.02
2018-12-22T23:13:41.315Z,98764.77
2018-12-22T23:16:16.350Z,98763.30
2018-12-22T23:21:55.499Z,98766.80
2018-12-22T23:24:44.374Z,98761.91
2018-12-22T23:30:23.470Z,98775.67
